createdAt,value
2018-12-20T00:01:37.424Z,8.63
2018-12-20T00:04:08.214Z,9.20
2018-12-20T00:06:39.284Z,9.17
2018-12-20T00:09:12.356Z,9.80
2018-12-20T00:11:43.272Z,7.63
2018-12-20T00:14:14.218Z,10.03
2018-12-20T00:16:47.454Z,8.23
2018-12-20T00:19:25.273Z,12.37
2018-12-20T00:21:56.899Z,10.60
2018-12-20T00:24:30.570Z,9.70
2018-12-20T00:27:04.846Z,10.73
2018-12-20T00:29:38.293Z,9.63
2018-12-20T00:32:10.056Z,10.77
2018-12-20T00:34:43.374Z,9.53
2018-12-20T00:37:14.810Z,9.70
2018-12-20T00:39:47.866Z,9.10
2018-12-20T00:42:20.953Z,8.53
2018-12-20T00:44:52.474Z,9.23
2018-12-20T00:47:23.587Z,8.43
2018-12-20T00:49:56.848Z,9.87
2018-12-20T00:52:30.121Z,8.40
2018-12-20T00:55:02.929Z,9.93
2018-12-20T00:57:34.725Z,9.13
2018-12-20T01:00:10.272Z,8.00
2018-12-20T01:02:41.711Z,10.00
2018-12-20T01:05:14.765Z,8.67
2018-12-20T01:07:46.235Z,11.27
2018-12-20T01:10:17.346Z,9.53
2018-12-20T01:12:50.712Z,9.23
2018-12-20T01:15:22.493Z,11.97
2018-12-20T01:17:53.007Z,10.93
2018-12-20T01:20:24.097Z,12.30
2018-12-20T01:25:47.194Z,14.30
2018-12-20T01:28:20.318Z,16.23
2018-12-20T01:30:53.611Z,14.60
2018-12-20T01:33:25.053Z,14.40
2018-12-20T01:35:56.198Z,17.23
2018-12-20T01:38:27.422Z,16.97
2018-12-20T01:40:58.968Z,16.03
2018-12-20T01:43:29.848Z,17.10
2018-12-20T01:46:05.491Z,15.30
2018-12-20T01:48:41.426Z,16.57
2018-12-20T01:51:14.410Z,17.97
2018-12-20T01:53:47.745Z,16.40
2018-12-20T01:56:19.306Z,16.97
2018-12-20T01:58:50.422Z,16.77
2018-12-20T02:01:21.408Z,16.03
2018-12-20T02:03:54.947Z,16.17
2018-12-20T02:06:27.003Z,14.37
2018-12-20T02:08:58.379Z,15.63
2018-12-20T02:11:29.644Z,11.70
2018-12-20T02:14:01.601Z,9.80
2018-12-20T02:16:36.787Z,7.33
2018-12-20T02:19:08.449Z,7.93
2018-12-20T02:21:39.591Z,8.07
2018-12-20T02:24:10.447Z,8.57
2018-12-20T02:26:43.894Z,7.70
2018-12-20T02:29:15.425Z,6.83
2018-12-20T02:31:48.655Z,7.43
2018-12-20T02:34:19.934Z,7.20
2018-12-20T02:36:53.452Z,7.13
2018-12-20T02:39:24.976Z,6.47
2018-12-20T02:41:58.517Z,6.57
2018-12-20T02:44:32.071Z,6.13
2018-12-20T02:49:59.709Z,6.77
2018-12-20T02:52:32.862Z,7.13
2018-12-20T02:55:07.031Z,6.97
2018-12-20T02:57:42.185Z,6.40
2018-12-20T03:00:15.866Z,5.70
2018-12-20T03:02:49.603Z,5.63
2018-12-20T03:05:21.014Z,4.80
2018-12-20T03:07:52.365Z,6.73
2018-12-20T03:10:23.336Z,4.97
2018-12-20T03:12:56.665Z,4.50
2018-12-20T03:15:28.235Z,10.10
2018-12-20T03:18:03.404Z,4.70
2018-12-20T03:20:35.096Z,4.83
2018-12-20T03:23:08.476Z,4.93
2018-12-20T03:25:39.147Z,4.53
2018-12-20T03:28:13.538Z,4.73
2018-12-20T03:30:47.326Z,5.33
2018-12-20T03:33:23.088Z,3.90
2018-12-20T03:35:58.219Z,5.07
2018-12-20T03:38:29.801Z,6.20
2018-12-20T03:41:03.391Z,6.80
2018-12-20T03:43:34.909Z,4.53
2018-12-20T03:46:08.265Z,4.73
2018-12-20T03:48:39.572Z,5.43
2018-12-20T03:51:10.525Z,4.90
2018-12-20T03:53:43.948Z,6.23
2018-12-20T03:56:17.642Z,6.70
2018-12-20T03:58:50.721Z,5.57
2018-12-20T04:01:22.443Z,5.07
2018-12-20T04:03:56.609Z,5.40
2018-12-20T04:06:31.425Z,6.20
2018-12-20T04:09:05.889Z,5.97
2018-12-20T04:11:39.572Z,7.47
2018-12-20T04:14:11.186Z,7.03
2018-12-20T04:16:44.924Z,6.00
2018-12-20T04:19:22.858Z,7.23
2018-12-20T04:21:58.988Z,5.73
2018-12-20T04:24:32.212Z,6.13
2018-12-20T04:27:03.840Z,6.60
2018-12-20T04:29:43.758Z,7.27
2018-12-20T04:32:19.033Z,6.33
2018-12-20T04:34:51.950Z,5.70
2018-12-20T04:37:32.176Z,5.80
2018-12-20T04:40:05.353Z,7.30
2018-12-20T04:42:36.793Z,6.77
2018-12-20T04:45:10.497Z,8.30
2018-12-20T04:47:45.009Z,6.37
2018-12-20T04:50:20.101Z,6.80
2018-12-20T04:52:54.094Z,8.03
2018-12-20T04:55:25.377Z,6.77
2018-12-20T04:57:56.258Z,8.60
2018-12-20T05:00:27.022Z,7.73
2018-12-20T05:03:00.683Z,6.87
2018-12-20T05:05:34.918Z,7.10
2018-12-20T05:08:08.530Z,7.33
2018-12-20T05:10:39.576Z,7.10
2018-12-20T05:13:10.601Z,6.33
2018-12-20T05:15:41.579Z,7.47
2018-12-20T05:18:12.464Z,5.87
2018-12-20T05:20:43.474Z,7.83
2018-12-20T05:23:17.038Z,6.27
2018-12-20T05:25:50.343Z,8.63
2018-12-20T05:28:24.285Z,5.27
2018-12-20T05:30:55.820Z,9.20
2018-12-20T05:33:29.088Z,8.20
2018-12-20T05:36:02.884Z,5.80
2018-12-20T05:38:36.454Z,5.43
2018-12-20T05:41:07.768Z,6.23
2018-12-20T05:43:38.558Z,4.83
2018-12-20T05:46:16.281Z,5.90
2018-12-20T05:48:47.305Z,5.97
2018-12-20T05:53:54.378Z,5.43
2018-12-20T05:56:28.404Z,4.80
2018-12-20T05:59:02.077Z,5.47
2018-12-20T06:01:33.556Z,4.87
2018-12-20T06:04:04.517Z,4.37
2018-12-20T06:06:35.469Z,3.00
2018-12-20T06:09:09.033Z,4.47
2018-12-20T06:11:42.648Z,6.17
2018-12-20T06:14:14.135Z,3.20
2018-12-20T06:16:48.101Z,3.73
2018-12-20T06:19:18.958Z,3.33
2018-12-20T06:21:53.950Z,3.73
2018-12-20T06:24:26.935Z,5.07
2018-12-20T06:26:59.852Z,4.07
2018-12-20T06:29:32.881Z,3.67
2018-12-20T06:32:04.305Z,3.80
2018-12-20T06:34:37.652Z,6.80
2018-12-20T06:37:09.013Z,4.30
2018-12-20T06:39:42.602Z,6.33
2018-12-20T06:42:13.943Z,4.50
2018-12-20T06:44:47.334Z,4.47
2018-12-20T06:47:18.948Z,5.57
2018-12-20T06:49:52.303Z,6.03
2018-12-20T06:52:27.166Z,7.47
2018-12-20T06:55:02.615Z,7.13
2018-12-20T06:57:33.697Z,5.90
2018-12-20T07:00:05.402Z,8.73
2018-12-20T07:02:39.066Z,7.40
2018-12-20T07:05:16.734Z,7.23
2018-12-20T07:07:51.927Z,8.50
2018-12-20T07:10:24.884Z,8.17
2018-12-20T07:12:59.814Z,7.43
2018-12-20T07:15:30.488Z,7.43
2018-12-20T07:18:04.021Z,7.33
2018-12-20T07:20:39.668Z,7.67
2018-12-20T07:23:12.801Z,7.00
2018-12-20T07:25:55.102Z,8.50
2018-12-20T07:28:30.111Z,7.20
2018-12-20T07:31:03.213Z,7.93
2018-12-20T07:33:35.029Z,6.90
2018-12-20T07:36:12.002Z,6.53
2018-12-20T07:38:45.154Z,7.97
2018-12-20T07:41:16.528Z,7.40
2018-12-20T07:43:49.692Z,9.07
2018-12-20T07:46:21.931Z,7.00
2018-12-20T07:48:57.862Z,8.97
2018-12-20T07:51:30.198Z,8.60
2018-12-20T07:54:04.699Z,9.97
2018-12-20T07:56:45.723Z,8.40
2018-12-20T08:01:51.399Z,6.80
2018-12-20T08:04:27.588Z,7.53
2018-12-20T08:06:59.158Z,9.43
2018-12-20T08:09:39.385Z,7.83
2018-12-20T08:12:12.825Z,6.97
2018-12-20T08:14:44.228Z,5.20
2018-12-20T08:17:28.253Z,6.00
2018-12-20T08:20:01.952Z,5.87
2018-12-20T08:22:53.457Z,7.57
2018-12-20T08:25:28.617Z,8.33
2018-12-20T08:28:08.680Z,6.80
2018-12-20T08:30:53.265Z,6.47
2018-12-20T08:33:33.553Z,5.30
2018-12-20T08:36:07.046Z,6.13
2018-12-20T08:38:38.593Z,6.93
2018-12-20T08:41:11.785Z,5.53
2018-12-20T08:43:43.119Z,7.70
2018-12-20T08:46:14.465Z,7.30
2018-12-20T08:48:47.615Z,8.23
2018-12-20T08:51:19.254Z,7.47
2018-12-20T08:53:52.826Z,7.53
2018-12-20T08:56:27.080Z,6.60
2018-12-20T08:59:01.086Z,7.30
2018-12-20T09:01:32.410Z,6.57
2018-12-20T09:04:05.589Z,7.13
2018-12-20T09:06:37.033Z,5.60
2018-12-20T09:09:10.035Z,5.60
2018-12-20T09:11:41.240Z,6.00
2018-12-20T09:14:16.228Z,4.60
2018-12-20T09:16:51.669Z,6.10
2018-12-20T09:19:23.017Z,5.47
2018-12-20T09:21:55.994Z,6.53
2018-12-20T09:24:27.755Z,6.50
2018-12-20T09:27:01.918Z,6.60
2018-12-20T09:29:37.776Z,5.33
2018-12-20T09:32:09.236Z,6.53
2018-12-20T09:34:42.550Z,5.80
2018-12-20T09:37:13.997Z,6.77
2018-12-20T09:39:49.434Z,6.00
2018-12-20T09:42:20.865Z,6.43
2018-12-20T09:44:58.260Z,6.00
2018-12-20T09:47:36.884Z,4.80
2018-12-20T09:50:10.311Z,5.70
2018-12-20T09:52:45.178Z,4.60
2018-12-20T09:55:15.831Z,5.53
2018-12-20T09:57:50.123Z,3.00
2018-12-20T10:00:25.013Z,3.20
2018-12-20T10:02:58.811Z,3.17
2018-12-20T10:05:33.565Z,4.27
2018-12-20T10:08:13.036Z,3.27
2018-12-20T10:10:48.039Z,3.10
2018-12-20T10:13:22.280Z,2.93
2018-12-20T10:16:00.285Z,2.67
2018-12-20T10:18:35.990Z,3.20
2018-12-20T10:21:09.561Z,2.80
2018-12-20T10:23:44.441Z,2.83
2018-12-20T10:26:19.205Z,5.47
2018-12-20T10:28:59.361Z,2.30
2018-12-20T10:31:39.242Z,3.10
2018-12-20T10:34:19.027Z,2.50
2018-12-20T10:36:58.862Z,3.03
2018-12-20T10:39:34.034Z,2.57
2018-12-20T10:42:09.662Z,2.47
2018-12-20T10:44:45.657Z,1.60
2018-12-20T10:47:29.283Z,3.63
2018-12-20T10:50:06.103Z,2.20
2018-12-20T10:52:40.415Z,2.47
2018-12-20T10:55:15.329Z,2.63
2018-12-20T10:57:53.020Z,1.97
2018-12-20T11:00:32.534Z,2.53
2018-12-20T11:03:12.871Z,1.77
2018-12-20T11:05:52.915Z,2.37
2018-12-20T11:08:29.336Z,2.73
2018-12-20T11:11:06.030Z,2.80
2018-12-20T11:13:40.643Z,2.90
2018-12-20T11:16:20.951Z,2.50
2018-12-20T11:18:56.408Z,2.73
2018-12-20T11:21:31.528Z,2.60
2018-12-20T11:24:06.719Z,2.73
2018-12-20T11:26:44.296Z,2.63
2018-12-20T11:29:25.026Z,2.70
2018-12-20T11:32:05.234Z,2.53
2018-12-20T11:34:41.191Z,4.23
2018-12-20T11:37:15.001Z,3.00
2018-12-20T11:39:49.093Z,2.57
2018-12-20T11:42:30.091Z,2.40
2018-12-20T11:45:04.271Z,3.03
2018-12-20T11:47:45.941Z,2.80
2018-12-20T11:50:23.396Z,2.27
2018-12-20T11:53:00.584Z,2.07
2018-12-20T11:55:38.436Z,1.97
2018-12-20T11:58:16.223Z,1.60
2018-12-20T12:00:50.230Z,2.10
2018-12-20T12:03:20.977Z,1.53
2018-12-20T12:05:57.424Z,1.57
2018-12-20T12:08:32.103Z,2.20
2018-12-20T12:11:06.322Z,1.60
2018-12-20T12:13:42.430Z,1.20
2018-12-20T12:16:21.799Z,1.23
2018-12-20T12:18:57.256Z,1.30
2018-12-20T12:21:34.424Z,1.67
2018-12-20T12:24:10.094Z,1.60
2018-12-20T12:26:51.112Z,1.57
2018-12-20T12:29:25.266Z,1.10
2018-12-20T12:31:59.437Z,2.33
2018-12-20T12:34:37.114Z,1.53
2018-12-20T12:37:12.218Z,1.60
2018-12-20T12:39:45.962Z,1.90
2018-12-20T12:42:25.396Z,1.40
2018-12-20T12:45:02.270Z,1.43
2018-12-20T12:47:42.047Z,3.20
2018-12-20T12:50:19.146Z,3.13
2018-12-20T12:52:53.789Z,1.83
2018-12-20T12:55:28.819Z,1.50
2018-12-20T12:58:04.900Z,4.63
2018-12-20T13:00:39.669Z,1.73
2018-12-20T13:03:14.766Z,2.60
2018-12-20T13:05:49.564Z,2.00
2018-12-20T13:08:24.600Z,2.83
2018-12-20T13:10:59.705Z,4.83
2018-12-20T13:13:34.464Z,1.90
2018-12-20T13:16:08.422Z,3.47
2018-12-20T13:18:43.460Z,4.63
2018-12-20T13:21:17.848Z,1.40
2018-12-20T13:23:52.800Z,2.37
2018-12-20T13:26:26.054Z,2.60
2018-12-20T13:29:01.566Z,2.60
2018-12-20T13:31:33.145Z,3.23
2018-12-20T13:34:07.396Z,2.77
2018-12-20T13:36:42.345Z,1.80
2018-12-20T13:39:21.956Z,1.67
2018-12-20T13:41:59.319Z,2.63
2018-12-20T13:44:34.387Z,3.47
2018-12-20T13:47:06.210Z,1.53
2018-12-20T13:49:41.071Z,1.47
2018-12-20T13:52:18.882Z,1.00
2018-12-20T13:54:55.839Z,1.00
2018-12-20T13:57:30.640Z,2.10
2018-12-20T14:00:14.889Z,2.00
2018-12-20T14:02:49.446Z,1.33
2018-12-20T14:05:22.723Z,0.80
2018-12-20T14:07:59.011Z,1.00
2018-12-20T14:10:34.713Z,2.97
2018-12-20T14:13:09.543Z,1.10
2018-12-20T14:15:46.400Z,2.13
2018-12-20T14:18:21.623Z,1.40
2018-12-20T14:20:56.474Z,1.10
2018-12-20T14:23:28.200Z,2.40
2018-12-20T14:26:05.267Z,0.90
2018-12-20T14:28:40.185Z,2.10
2018-12-20T14:31:15.059Z,0.90
2018-12-20T14:33:49.829Z,1.10
2018-12-20T14:36:30.393Z,1.27
2018-12-20T14:39:10.390Z,0.93
2018-12-20T14:41:44.809Z,1.30
2018-12-20T14:44:19.854Z,0.97
2018-12-20T14:46:55.385Z,0.90
2018-12-20T14:49:29.590Z,1.83
2018-12-20T14:52:09.041Z,1.43
2018-12-20T14:54:44.602Z,3.33
2018-12-20T14:57:19.649Z,3.27
2018-12-20T14:59:56.516Z,1.07
2018-12-20T15:02:34.981Z,2.33
2018-12-20T15:05:13.531Z,3.10
2018-12-20T15:07:51.282Z,2.10
2018-12-20T15:10:31.520Z,3.23
2018-12-20T15:13:07.395Z,4.40
2018-12-20T15:15:46.692Z,1.43
2018-12-20T15:18:26.126Z,1.10
2018-12-20T15:21:03.056Z,1.07
2018-12-20T15:23:38.512Z,1.37
2018-12-20T15:26:18.267Z,1.27
2018-12-20T15:28:55.769Z,1.90
2018-12-20T15:31:35.858Z,1.37
2018-12-20T15:34:10.241Z,1.30
2018-12-20T15:36:46.101Z,1.20
2018-12-20T15:39:27.759Z,1.30
2018-12-20T15:42:02.371Z,1.00
2018-12-20T15:44:36.376Z,1.00
2018-12-20T15:47:11.176Z,1.80
2018-12-20T15:49:46.257Z,1.70
2018-12-20T15:52:25.876Z,3.40
2018-12-20T15:55:05.411Z,1.30
2018-12-20T15:57:40.805Z,1.27
2018-12-20T16:00:15.669Z,1.23
2018-12-20T16:02:50.783Z,4.50
2018-12-20T16:05:23.032Z,1.37
2018-12-20T16:08:03.677Z,1.30
2018-12-20T16:10:44.093Z,1.90
2018-12-20T16:13:20.319Z,0.93
2018-12-20T16:15:55.366Z,2.33
2018-12-20T16:18:31.155Z,2.07
2018-12-20T16:21:10.555Z,1.00
2018-12-20T16:23:45.861Z,0.70
2018-12-20T16:26:23.256Z,0.80
2018-12-20T16:28:58.611Z,1.17
2018-12-20T16:31:33.481Z,1.10
2018-12-20T16:34:10.438Z,1.80
2018-12-20T16:36:45.555Z,2.40
2018-12-20T16:39:25.804Z,2.63
2018-12-20T16:42:05.475Z,2.07
2018-12-20T16:44:39.721Z,2.50
2018-12-20T16:47:13.299Z,1.50
2018-12-20T16:49:48.660Z,1.97
2018-12-20T16:52:28.325Z,1.80
2018-12-20T16:55:01.741Z,1.77
2018-12-20T16:57:36.706Z,4.03
2018-12-20T17:00:11.616Z,2.70
2018-12-20T17:02:46.745Z,2.37
2018-12-20T17:05:24.714Z,2.30
2018-12-20T17:07:59.547Z,2.90
2018-12-20T17:10:34.435Z,3.97
2018-12-20T17:13:09.237Z,1.43
2018-12-20T17:15:44.220Z,1.57
2018-12-20T17:18:18.306Z,1.10
2018-12-20T17:20:51.718Z,1.43
2018-12-20T17:23:35.641Z,2.90
2018-12-20T17:26:05.792Z,1.30
2018-12-20T17:28:40.702Z,0.93
2018-12-20T17:31:15.603Z,2.53
2018-12-20T17:33:54.931Z,1.47
2018-12-20T17:36:29.529Z,1.57
2018-12-20T17:39:05.965Z,1.63
2018-12-20T17:41:47.535Z,1.57
2018-12-20T17:44:22.989Z,1.93
2018-12-20T17:46:58.170Z,3.17
2018-12-20T17:49:33.127Z,1.93
2018-12-20T17:52:08.118Z,1.13
2018-12-20T17:54:43.023Z,1.23
2018-12-20T17:57:18.007Z,1.00
2018-12-20T17:59:51.847Z,0.93
2018-12-20T18:02:26.973Z,1.80
2018-12-20T18:05:06.826Z,1.03
2018-12-20T18:07:37.771Z,1.77
2018-12-20T18:10:13.058Z,1.33
2018-12-20T18:12:46.863Z,3.97
2018-12-20T18:15:21.796Z,1.87
2018-12-20T18:17:56.762Z,1.13
2018-12-20T18:20:34.158Z,1.70
2018-12-20T18:23:14.392Z,1.20
2018-12-20T18:25:49.960Z,1.30
2018-12-20T18:28:25.860Z,1.63
2018-12-20T18:31:01.798Z,0.83
2018-12-20T18:33:39.969Z,2.07
2018-12-20T18:36:16.607Z,2.30
2018-12-20T18:38:55.350Z,1.03
2018-12-20T18:41:31.873Z,2.87
2018-12-20T18:44:08.972Z,0.73
2018-12-20T18:46:48.563Z,1.23
2018-12-20T18:49:28.379Z,1.40
2018-12-20T18:52:03.032Z,1.10
2018-12-20T18:54:39.086Z,4.17
2018-12-20T18:57:14.841Z,1.30
2018-12-20T18:59:49.659Z,2.67
2018-12-20T19:02:29.251Z,1.17
2018-12-20T19:05:05.366Z,0.80
2018-12-20T19:07:39.794Z,1.73
2018-12-20T19:10:17.155Z,1.10
2018-12-20T19:12:51.996Z,0.80
2018-12-20T19:15:28.975Z,1.37
2018-12-20T19:18:05.858Z,2.80
2018-12-20T19:20:42.954Z,0.93
2018-12-20T19:23:20.903Z,1.13
2018-12-20T19:25:56.437Z,0.83
2018-12-20T19:28:31.508Z,0.70
2018-12-20T19:31:09.300Z,2.30
2018-12-20T19:33:46.278Z,1.00
2018-12-20T19:36:21.025Z,1.20
2018-12-20T19:38:58.089Z,0.80
2018-12-20T19:41:32.718Z,0.77
2018-12-20T19:44:06.854Z,1.23
2018-12-20T19:46:43.639Z,0.70
2018-12-20T19:49:22.267Z,1.10
2018-12-20T19:51:58.901Z,1.10
2018-12-20T19:54:38.281Z,1.00
2018-12-20T19:57:15.056Z,0.83
2018-12-20T19:59:49.245Z,0.60
2018-12-20T20:02:26.071Z,1.60
2018-12-20T20:05:03.128Z,1.47
2018-12-20T20:07:39.449Z,1.00
2018-12-20T20:10:16.034Z,2.33
2018-12-20T20:12:59.706Z,2.13
2018-12-20T20:15:39.948Z,1.70
2018-12-20T20:18:16.535Z,1.10
2018-12-20T20:20:52.488Z,0.80
2018-12-20T20:23:31.176Z,3.13
2018-12-20T20:26:06.012Z,1.70
2018-12-20T20:28:46.126Z,2.33
2018-12-20T20:31:26.916Z,1.87
2018-12-20T20:34:06.788Z,1.10
2018-12-20T20:36:41.356Z,2.60
2018-12-20T20:39:15.202Z,1.07
2018-12-20T20:41:51.144Z,1.83
2018-12-20T20:44:27.872Z,2.40
2018-12-20T20:47:05.181Z,2.43
2018-12-20T20:49:40.942Z,3.10
2018-12-20T20:52:27.490Z,3.33
2018-12-20T20:55:01.731Z,1.80
2018-12-20T20:57:37.253Z,1.77
2018-12-20T21:00:12.485Z,2.10
2018-12-20T21:02:54.995Z,1.23
2018-12-20T21:05:32.817Z,1.20
2018-12-20T21:08:10.735Z,1.57
2018-12-20T21:10:48.404Z,1.80
2018-12-20T21:16:29.209Z,2.50
2018-12-20T21:19:05.281Z,4.00
2018-12-20T21:21:39.806Z,2.07
2018-12-20T21:24:21.323Z,1.53
2018-12-20T21:27:01.946Z,2.17
2018-12-20T21:29:35.271Z,1.13
2018-12-20T21:32:14.756Z,1.50
2018-12-20T21:34:50.208Z,2.97
2018-12-20T21:37:33.621Z,1.50
2018-12-20T21:40:09.058Z,1.43
2018-12-20T21:42:43.808Z,1.13
2018-12-20T21:45:18.705Z,2.00
2018-12-20T21:48:02.062Z,2.60
2018-12-20T21:50:39.094Z,1.10
2018-12-20T21:53:14.014Z,1.40
2018-12-20T21:55:57.581Z,1.70
2018-12-20T21:58:32.936Z,0.90
2018-12-20T22:01:09.925Z,1.67
2018-12-20T22:03:44.922Z,1.07
2018-12-20T22:06:19.978Z,2.77
2018-12-20T22:08:54.350Z,2.57
2018-12-20T22:11:31.513Z,1.50
2018-12-20T22:14:07.274Z,2.80
2018-12-20T22:16:42.109Z,2.53
2018-12-20T22:19:17.032Z,0.80
2018-12-20T22:21:52.340Z,1.10
2018-12-20T22:24:31.590Z,0.80
2018-12-20T22:27:06.785Z,1.90
2018-12-20T22:29:41.878Z,1.00
2018-12-20T22:32:13.405Z,1.30
2018-12-20T22:34:48.521Z,2.03
2018-12-20T22:37:29.274Z,2.97
2018-12-20T22:40:04.123Z,1.27
2018-12-20T22:42:38.798Z,1.93
2018-12-20T22:45:13.829Z,2.90
2018-12-20T22:47:53.682Z,1.93
2018-12-20T22:50:29.095Z,1.73
2018-12-20T22:53:03.328Z,1.80
2018-12-20T22:55:37.019Z,1.90
2018-12-20T22:58:11.243Z,2.20
2018-12-20T23:00:49.043Z,2.23
2018-12-20T23:03:24.725Z,4.43
2018-12-20T23:06:14.522Z,1.87
2018-12-20T23:08:54.103Z,1.20
2018-12-20T23:11:31.582Z,1.27
2018-12-20T23:14:08.570Z,1.73
2018-12-20T23:16:43.374Z,4.23
2018-12-20T23:19:18.399Z,3.73
2018-12-20T23:21:53.440Z,3.00
2018-12-20T23:24:28.394Z,1.37
2018-12-20T23:27:08.001Z,1.77
2018-12-20T23:29:45.587Z,1.80
2018-12-20T23:32:20.634Z,2.50
2018-12-20T23:34:56.405Z,1.03
2018-12-20T23:37:31.612Z,1.27
2018-12-20T23:40:08.565Z,3.50
2018-12-20T23:42:43.551Z,1.47
2018-12-20T23:45:18.588Z,0.70
2018-12-20T23:47:55.814Z,4.57
2018-12-20T23:50:30.973Z,2.37
2018-12-20T23:53:05.788Z,0.70
2018-12-20T23:55:40.827Z,2.03
2018-12-20T23:58:15.629Z,3.10
